sensor_id;sensor_type;location;lat;lon;timestamp;P1;durP1;ratioP1;P2;durP2;ratioP2
65049;SDS011;52090;51.224;-2.328;2023-01-08T00:01:09;21.40;;;6.57;;
65049;SDS011;52090;51.224;-2.328;2023-01-08T00:04:53;23.88;;;5.50;;
65049;SDS011;52090;51.224;-2.328;2023-01-08T00:08:34;22.15;;;6.47;;
65049;SDS011;52090;51.224;-2.328;2023-01-08T00:12:16;15.20;;;5.00;;
65049;SDS011;52090;51.224;-2.328;2023-01-08T00:16:01;21.42;;;5.35;;
65049;SDS011;52090;51.224;-2.328;2023-01-08T00:19:47;21.02;;;4.97;;
65049;SDS011;52090;51.224;-2.328;2023-01-08T00:23:29;22.95;;;5.80;;
65049;SDS011;52090;51.224;-2.328;2023-01-08T00:27:11;21.17;;;6.10;;
65049;SDS011;52090;51.224;-2.328;2023-01-08T00:30:53;15.43;;;5.30;;
65049;SDS011;52090;51.224;-2.328;2023-01-08T00:34:35;20.55;;;6.20;;
65049;SDS011;52090;51.224;-2.328;2023-01-08T00:38:16;20.05;;;4.80;;
65049;SDS011;52090;51.224;-2.328;2023-01-08T00:41:58;25.10;;;6.15;;
65049;SDS011;52090;51.224;-2.328;2023-01-08T00:45:40;22.92;;;6.40;;
65049;SDS011;52090;51.224;-2.328;2023-01-08T00:49:22;18.93;;;5.87;;
65049;SDS011;52090;51.224;-2.328;2023-01-08T00:53:04;16.00;;;6.07;;
65049;SDS011;52090;51.224;-2.328;2023-01-08T00:56:46;21.52;;;4.90;;
65049;SDS011;52090;51.224;-2.328;2023-01-08T01:00:28;26.08;;;6.50;;
65049;SDS011;52090;51.224;-2.328;2023-01-08T01:04:09;22.95;;;5.82;;
65049;SDS011;52090;51.224;-2.328;2023-01-08T01:07:51;24.38;;;5.35;;
65049;SDS011;52090;51.224;-2.328;2023-01-08T01:11:33;17.27;;;5.20;;
65049;SDS011;52090;51.224;-2.328;2023-01-08T01:15:16;20.77;;;4.75;;
65049;SDS011;52090;51.224;-2.328;2023-01-08T01:18:58;12.65;;;4.00;;
65049;SDS011;52090;51.224;-2.328;2023-01-08T01:22:40;14.38;;;4.43;;
65049;SDS011;52090;51.224;-2.328;2023-01-08T01:26:23;12.18;;;4.13;;
65049;SDS011;52090;51.224;-2.328;2023-01-08T01:30:06;14.25;;;3.92;;
65049;SDS011;52090;51.224;-2.328;2023-01-08T01:33:48;18.90;;;4.80;;
65049;SDS011;52090;51.224;-2.328;2023-01-08T01:37:30;12.23;;;4.00;;
65049;SDS011;52090;51.224;-2.328;2023-01-08T01:41:55;13.73;;;3.75;;
65049;SDS011;52090;51.224;-2.328;2023-01-08T01:45:21;8.70;;;3.10;;
65049;SDS011;52090;51.224;-2.328;2023-01-08T01:49:07;8.75;;;3.20;;
65049;SDS011;52090;51.224;-2.328;2023-01-08T01:52:54;8.63;;;2.67;;
65049;SDS011;52090;51.224;-2.328;2023-01-08T01:56:39;7.78;;;2.78;;
65049;SDS011;52090;51.224;-2.328;2023-01-08T02:00:22;6.50;;;2.30;;
65049;SDS011;52090;51.224;-2.328;2023-01-08T02:04:08;7.20;;;2.90;;
65049;SDS011;52090;51.224;-2.328;2023-01-08T02:16:13;5.90;;;2.13;;
65049;SDS011;52090;51.224;-2.328;2023-01-08T02:20:07;3.97;;;1.90;;
65049;SDS011;52090;51.224;-2.328;2023-01-08T02:28:09;6.63;;;1.92;;
65049;SDS011;52090;51.224;-2.328;2023-01-08T02:31:54;5.38;;;2.22;;
65049;SDS011;52090;51.224;-2.328;2023-01-08T02:35:40;18.43;;;2.30;;
65049;SDS011;52090;51.224;-2.328;2023-01-08T02:51:12;5.55;;;2.53;;
65049;SDS011;52090;51.224;-2.328;2023-01-08T02:54:58;6.40;;;2.28;;
65049;SDS011;52090;51.224;-2.328;2023-01-08T02:58:42;5.65;;;2.00;;
65049;SDS011;52090;51.224;-2.328;2023-01-08T03:02:27;5.10;;;1.90;;
65049;SDS011;52090;51.224;-2.328;2023-01-08T03:06:14;6.68;;;1.83;;
65049;SDS011;52090;51.224;-2.328;2023-01-08T03:09:58;4.13;;;2.03;;
65049;SDS011;52090;51.224;-2.328;2023-01-08T03:17:45;4.43;;;1.50;;
65049;SDS011;52090;51.224;-2.328;2023-01-08T03:21:29;5.07;;;1.77;;
65049;SDS011;52090;51.224;-2.328;2023-01-08T03:25:12;4.67;;;1.60;;
65049;SDS011;52090;51.224;-2.328;2023-01-08T03:28:56;4.55;;;1.60;;
65049;SDS011;52090;51.224;-2.328;2023-01-08T03:32:38;4.40;;;1.60;;
65049;SDS011;52090;51.224;-2.328;2023-01-08T03:36:25;7.82;;;1.70;;
65049;SDS011;52090;51.224;-2.328;2023-01-08T03:40:10;3.60;;;1.60;;
65049;SDS011;52090;51.224;-2.328;2023-01-08T03:43:57;6.15;;;1.92;;
65049;SDS011;52090;51.224;-2.328;2023-01-08T03:47:39;4.97;;;1.90;;
65049;SDS011;52090;51.224;-2.328;2023-01-08T03:51:22;6.28;;;1.50;;
65049;SDS011;52090;51.224;-2.328;2023-01-08T03:55:04;6.50;;;1.88;;
65049;SDS011;52090;51.224;-2.328;2023-01-08T03:58:46;4.88;;;1.98;;
65049;SDS011;52090;51.224;-2.328;2023-01-08T04:02:28;5.07;;;1.80;;
65049;SDS011;52090;51.224;-2.328;2023-01-08T04:06:10;7.05;;;1.95;;
65049;SDS011;52090;51.224;-2.328;2023-01-08T04:09:52;5.28;;;1.80;;
65049;SDS011;52090;51.224;-2.328;2023-01-08T04:13:33;5.53;;;1.73;;
65049;SDS011;52090;51.224;-2.328;2023-01-08T04:17:15;4.82;;;2.08;;
65049;SDS011;52090;51.224;-2.328;2023-01-08T04:20:57;8.25;;;2.10;;
65049;SDS011;52090;51.224;-2.328;2023-01-08T04:24:39;8.38;;;2.70;;
65049;SDS011;52090;51.224;-2.328;2023-01-08T04:28:21;7.15;;;2.30;;
65049;SDS011;52090;51.224;-2.328;2023-01-08T04:32:03;12.43;;;2.28;;
65049;SDS011;52090;51.224;-2.328;2023-01-08T04:35:44;8.30;;;2.03;;
65049;SDS011;52090;51.224;-2.328;2023-01-08T04:39:26;6.25;;;2.50;;
65049;SDS011;52090;51.224;-2.328;2023-01-08T04:43:08;7.18;;;2.08;;
65049;SDS011;52090;51.224;-2.328;2023-01-08T04:46:50;9.07;;;2.60;;
65049;SDS011;52090;51.224;-2.328;2023-01-08T04:50:31;4.53;;;2.50;;
65049;SDS011;52090;51.224;-2.328;2023-01-08T04:54:13;6.78;;;2.38;;
65049;SDS011;52090;51.224;-2.328;2023-01-08T04:57:55;13.45;;;3.10;;
65049;SDS011;52090;51.224;-2.328;2023-01-08T05:01:37;9.98;;;2.40;;
65049;SDS011;52090;51.224;-2.328;2023-01-08T05:05:19;11.43;;;3.35;;
65049;SDS011;52090;51.224;-2.328;2023-01-08T05:09:00;7.25;;;2.50;;
65049;SDS011;52090;51.224;-2.328;2023-01-08T05:12:42;6.28;;;2.10;;
65049;SDS011;52090;51.224;-2.328;2023-01-08T05:16:24;5.47;;;2.22;;
65049;SDS011;52090;51.224;-2.328;2023-01-08T05:20:06;7.63;;;2.50;;
65049;SDS011;52090;51.224;-2.328;2023-01-08T05:23:48;7.97;;;2.28;;
65049;SDS011;52090;51.224;-2.328;2023-01-08T05:27:30;5.30;;;2.03;;
65049;SDS011;52090;51.224;-2.328;2023-01-08T05:31:12;8.43;;;2.58;;
65049;SDS011;52090;51.224;-2.328;2023-01-08T05:34:54;9.52;;;2.55;;
65049;SDS011;52090;51.224;-2.328;2023-01-08T05:38:35;10.18;;;2.40;;
65049;SDS011;52090;51.224;-2.328;2023-01-08T05:42:17;9.35;;;3.30;;
65049;SDS011;52090;51.224;-2.328;2023-01-08T05:45:59;12.57;;;2.72;;
65049;SDS011;52090;51.224;-2.328;2023-01-08T05:49:42;5.40;;;2.35;;
65049;SDS011;52090;51.224;-2.328;2023-01-08T05:53:23;8.15;;;2.78;;
65049;SDS011;52090;51.224;-2.328;2023-01-08T05:57:05;5.88;;;2.33;;
65049;SDS011;52090;51.224;-2.328;2023-01-08T06:00:47;5.50;;;2.30;;
65049;SDS011;52090;51.224;-2.328;2023-01-08T06:04:29;10.63;;;2.65;;
65049;SDS011;52090;51.224;-2.328;2023-01-08T06:08:11;10.50;;;3.05;;
65049;SDS011;52090;51.224;-2.328;2023-01-08T06:11:52;12.70;;;3.15;;
65049;SDS011;52090;51.224;-2.328;2023-01-08T06:15:36;7.90;;;2.78;;
65049;SDS011;52090;51.224;-2.328;2023-01-08T06:19:19;10.18;;;2.85;;
65049;SDS011;52090;51.224;-2.328;2023-01-08T06:23:01;10.50;;;3.05;;
65049;SDS011;52090;51.224;-2.328;2023-01-08T06:26:43;7.20;;;2.83;;
65049;SDS011;52090;51.224;-2.328;2023-01-08T06:30:24;11.45;;;3.42;;
65049;SDS011;52090;51.224;-2.328;2023-01-08T06:34:06;10.98;;;3.40;;
65049;SDS011;52090;51.224;-2.328;2023-01-08T06:37:48;13.20;;;4.38;;
65049;SDS011;52090;51.224;-2.328;2023-01-08T06:41:29;7.65;;;3.13;;
65049;SDS011;52090;51.224;-2.328;2023-01-08T06:45:11;9.00;;;2.95;;
65049;SDS011;52090;51.224;-2.328;2023-01-08T06:48:53;7.43;;;2.50;;
65049;SDS011;52090;51.224;-2.328;2023-01-08T06:52:35;10.80;;;3.13;;
65049;SDS011;52090;51.224;-2.328;2023-01-08T06:56:17;12.23;;;3.03;;
65049;SDS011;52090;51.224;-2.328;2023-01-08T06:59:58;10.85;;;3.08;;
65049;SDS011;52090;51.224;-2.328;2023-01-08T07:03:40;8.00;;;2.47;;
65049;SDS011;52090;51.224;-2.328;2023-01-08T07:07:22;8.38;;;3.20;;
65049;SDS011;52090;51.224;-2.328;2023-01-08T07:11:04;8.07;;;2.83;;
65049;SDS011;52090;51.224;-2.328;2023-01-08T07:14:46;9.13;;;2.70;;
65049;SDS011;52090;51.224;-2.328;2023-01-08T07:18:28;9.50;;;2.53;;
65049;SDS011;52090;51.224;-2.328;2023-01-08T07:22:09;10.27;;;3.08;;
65049;SDS011;52090;51.224;-2.328;2023-01-08T07:25:51;6.93;;;2.88;;
65049;SDS011;52090;51.224;-2.328;2023-01-08T07:29:33;9.27;;;2.88;;
65049;SDS011;52090;51.224;-2.328;2023-01-08T07:33:15;16.80;;;4.10;;
65049;SDS011;52090;51.224;-2.328;2023-01-08T07:36:56;10.30;;;4.70;;
65049;SDS011;52090;51.224;-2.328;2023-01-08T07:40:38;11.55;;;3.95;;
65049;SDS011;52090;51.224;-2.328;2023-01-08T07:44:20;12.95;;;3.25;;
65049;SDS011;52090;51.224;-2.328;2023-01-08T07:48:01;9.25;;;3.03;;
65049;SDS011;52090;51.224;-2.328;2023-01-08T07:51:43;11.30;;;3.20;;
65049;SDS011;52090;51.224;-2.328;2023-01-08T07:55:26;12.57;;;4.72;;
65049;SDS011;52090;51.224;-2.328;2023-01-08T07:59:09;7.07;;;2.75;;
65049;SDS011;52090;51.224;-2.328;2023-01-08T08:02:50;8.60;;;2.72;;
65049;SDS011;52090;51.224;-2.328;2023-01-08T08:06:32;11.68;;;4.13;;
65049;SDS011;52090;51.224;-2.328;2023-01-08T08:10:14;12.85;;;2.90;;
65049;SDS011;52090;51.224;-2.328;2023-01-08T08:13:56;10.30;;;3.25;;
65049;SDS011;52090;51.224;-2.328;2023-01-08T08:17:37;9.55;;;3.08;;
65049;SDS011;52090;51.224;-2.328;2023-01-08T08:21:19;8.57;;;3.08;;
65049;SDS011;52090;51.224;-2.328;2023-01-08T08:25:01;10.57;;;2.95;;
65049;SDS011;52090;51.224;-2.328;2023-01-08T08:28:43;9.90;;;3.65;;
65049;SDS011;52090;51.224;-2.328;2023-01-08T08:32:25;12.52;;;3.83;;
65049;SDS011;52090;51.224;-2.328;2023-01-08T08:36:06;17.65;;;4.72;;
65049;SDS011;52090;51.224;-2.328;2023-01-08T08:39:49;11.13;;;3.22;;
65049;SDS011;52090;51.224;-2.328;2023-01-08T08:43:30;14.00;;;4.53;;
65049;SDS011;52090;51.224;-2.328;2023-01-08T08:47:12;13.02;;;3.53;;
65049;SDS011;52090;51.224;-2.328;2023-01-08T08:50:54;8.73;;;3.05;;
65049;SDS011;52090;51.224;-2.328;2023-01-08T08:54:36;8.13;;;3.10;;
65049;SDS011;52090;51.224;-2.328;2023-01-08T08:58:21;11.07;;;2.70;;
65049;SDS011;52090;51.224;-2.328;2023-01-08T09:02:03;15.13;;;3.42;;
65049;SDS011;52090;51.224;-2.328;2023-01-08T09:05:46;8.73;;;2.65;;
65049;SDS011;52090;51.224;-2.328;2023-01-08T09:09:27;10.20;;;3.10;;
65049;SDS011;52090;51.224;-2.328;2023-01-08T09:13:09;15.82;;;3.78;;
65049;SDS011;52090;51.224;-2.328;2023-01-08T09:16:51;13.55;;;3.22;;
65049;SDS011;52090;51.224;-2.328;2023-01-08T09:20:33;12.00;;;3.13;;
65049;SDS011;52090;51.224;-2.328;2023-01-08T09:24:15;8.15;;;3.20;;
65049;SDS011;52090;51.224;-2.328;2023-01-08T09:28:04;21.50;;;3.80;;
65049;SDS011;52090;51.224;-2.328;2023-01-08T09:31:48;12.25;;;2.55;;
65049;SDS011;52090;51.224;-2.328;2023-01-08T09:35:30;10.32;;;3.40;;
65049;SDS011;52090;51.224;-2.328;2023-01-08T09:39:13;13.55;;;3.45;;
65049;SDS011;52090;51.224;-2.328;2023-01-08T09:42:55;8.15;;;2.67;;
65049;SDS011;52090;51.224;-2.328;2023-01-08T09:46:40;8.52;;;3.13;;
65049;SDS011;52090;51.224;-2.328;2023-01-08T09:50:24;5.25;;;2.05;;
65049;SDS011;52090;51.224;-2.328;2023-01-08T09:54:09;7.32;;;3.38;;
65049;SDS011;52090;51.224;-2.328;2023-01-08T09:57:55;7.68;;;2.08;;
65049;SDS011;52090;51.224;-2.328;2023-01-08T10:01:38;6.78;;;1.98;;
65049;SDS011;52090;51.224;-2.328;2023-01-08T10:05:21;7.28;;;2.10;;
65049;SDS011;52090;51.224;-2.328;2023-01-08T10:09:03;8.35;;;2.22;;
65049;SDS011;52090;51.224;-2.328;2023-01-08T10:12:49;3.05;;;1.60;;
65049;SDS011;52090;51.224;-2.328;2023-01-08T10:16:32;6.27;;;2.33;;
65049;SDS011;52090;51.224;-2.328;2023-01-08T10:20:19;3.97;;;1.80;;
65049;SDS011;52090;51.224;-2.328;2023-01-08T10:24:03;4.07;;;1.60;;
65049;SDS011;52090;51.224;-2.328;2023-01-08T10:31:27;5.50;;;2.17;;
65049;SDS011;52090;51.224;-2.328;2023-01-08T10:35:13;6.60;;;2.65;;
65049;SDS011;52090;51.224;-2.328;2023-01-08T10:38:58;3.80;;;1.80;;
65049;SDS011;52090;51.224;-2.328;2023-01-08T10:42:42;2.75;;;1.50;;
65049;SDS011;52090;51.224;-2.328;2023-01-08T10:46:26;4.10;;;1.55;;
65049;SDS011;52090;51.224;-2.328;2023-01-08T10:50:17;2.70;;;1.50;;
65049;SDS011;52090;51.224;-2.328;2023-01-08T10:54:12;8.27;;;2.70;;
65049;SDS011;52090;51.224;-2.328;2023-01-08T10:58:02;5.65;;;2.20;;
65049;SDS011;52090;51.224;-2.328;2023-01-08T11:01:54;4.35;;;2.00;;
65049;SDS011;52090;51.224;-2.328;2023-01-08T11:05:38;5.65;;;2.00;;
65049;SDS011;52090;51.224;-2.328;2023-01-08T11:09:21;4.80;;;2.10;;
65049;SDS011;52090;51.224;-2.328;2023-01-08T11:13:06;8.13;;;2.50;;
65049;SDS011;52090;51.224;-2.328;2023-01-08T11:16:56;7.68;;;2.30;;
65049;SDS011;52090;51.224;-2.328;2023-01-08T11:20:39;9.90;;;3.10;;
65049;SDS011;52090;51.224;-2.328;2023-01-08T11:24:34;8.80;;;2.75;;
65049;SDS011;52090;51.224;-2.328;2023-01-08T11:28:20;2.60;;;2.00;;
65049;SDS011;52090;51.224;-2.328;2023-01-08T11:36:31;5.30;;;2.50;;
65049;SDS011;52090;51.224;-2.328;2023-01-08T11:40:16;5.10;;;2.40;;
65049;SDS011;52090;51.224;-2.328;2023-01-08T11:48:29;4.10;;;2.10;;
65049;SDS011;52090;51.224;-2.328;2023-01-08T11:56:15;6.63;;;2.00;;
65049;SDS011;52090;51.224;-2.328;2023-01-08T12:04:25;4.25;;;2.80;;
65049;SDS011;52090;51.224;-2.328;2023-01-08T12:28:42;7.45;;;3.60;;
65049;SDS011;52090;51.224;-2.328;2023-01-08T12:32:33;9.82;;;3.80;;
65049;SDS011;52090;51.224;-2.328;2023-01-08T12:36:24;11.18;;;4.00;;
65049;SDS011;52090;51.224;-2.328;2023-01-08T12:40:12;6.50;;;2.95;;
65049;SDS011;52090;51.224;-2.328;2023-01-08T12:44:04;10.63;;;3.78;;
65049;SDS011;52090;51.224;-2.328;2023-01-08T12:48:01;9.38;;;4.28;;
65049;SDS011;52090;51.224;-2.328;2023-01-08T12:51:59;6.03;;;2.75;;
65049;SDS011;52090;51.224;-2.328;2023-01-08T13:03:36;6.20;;;2.33;;
65049;SDS011;52090;51.224;-2.328;2023-01-08T13:07:20;11.70;;;2.83;;
65049;SDS011;52090;51.224;-2.328;2023-01-08T13:11:06;4.97;;;2.30;;
65049;SDS011;52090;51.224;-2.328;2023-01-08T13:14:49;6.70;;;2.38;;
65049;SDS011;52090;51.224;-2.328;2023-01-08T13:18:31;7.90;;;2.25;;
65049;SDS011;52090;51.224;-2.328;2023-01-08T13:22:24;4.50;;;2.10;;
65049;SDS011;52090;51.224;-2.328;2023-01-08T13:26:14;6.07;;;2.30;;
65049;SDS011;52090;51.224;-2.328;2023-01-08T13:34:19;3.88;;;2.53;;
65049;SDS011;52090;51.224;-2.328;2023-01-08T13:38:14;4.32;;;1.90;;
65049;SDS011;52090;51.224;-2.328;2023-01-08T13:41:59;5.25;;;2.45;;
65049;SDS011;52090;51.224;-2.328;2023-01-08T13:45:41;4.88;;;2.60;;
65049;SDS011;52090;51.224;-2.328;2023-01-08T13:53:30;3.53;;;1.90;;
65049;SDS011;52090;51.224;-2.328;2023-01-08T13:57:14;2.95;;;1.98;;
65049;SDS011;52090;51.224;-2.328;2023-01-08T14:00:58;3.63;;;2.30;;
65049;SDS011;52090;51.224;-2.328;2023-01-08T14:04:47;8.27;;;2.95;;
65049;SDS011;52090;51.224;-2.328;2023-01-08T14:08:29;5.93;;;2.88;;
65049;SDS011;52090;51.224;-2.328;2023-01-08T14:12:12;5.97;;;2.95;;
65049;SDS011;52090;51.224;-2.328;2023-01-08T14:16:01;6.53;;;3.20;;
65049;SDS011;52090;51.224;-2.328;2023-01-08T14:19:45;5.85;;;2.63;;
65049;SDS011;52090;51.224;-2.328;2023-01-08T14:23:33;4.13;;;2.60;;
65049;SDS011;52090;51.224;-2.328;2023-01-08T14:27:19;3.92;;;2.42;;
65049;SDS011;52090;51.224;-2.328;2023-01-08T14:31:02;6.10;;;3.28;;
65049;SDS011;52090;51.224;-2.328;2023-01-08T14:34:44;4.07;;;2.92;;
65049;SDS011;52090;51.224;-2.328;2023-01-08T14:38:28;3.58;;;2.10;;
65049;SDS011;52090;51.224;-2.328;2023-01-08T14:46:25;3.08;;;1.88;;
65049;SDS011;52090;51.224;-2.328;2023-01-08T14:50:31;5.63;;;3.03;;
65049;SDS011;52090;51.224;-2.328;2023-01-08T14:54:14;5.35;;;3.92;;
65049;SDS011;52090;51.224;-2.328;2023-01-08T14:57:59;4.25;;;2.40;;
65049;SDS011;52090;51.224;-2.328;2023-01-08T15:01:41;4.80;;;2.83;;
65049;SDS011;52090;51.224;-2.328;2023-01-08T15:05:27;4.45;;;3.30;;
65049;SDS011;52090;51.224;-2.328;2023-01-08T15:13:03;4.30;;;2.95;;
65049;SDS011;52090;51.224;-2.328;2023-01-08T15:16:47;4.32;;;2.85;;
65049;SDS011;52090;51.224;-2.328;2023-01-08T15:20:29;7.80;;;3.00;;
65049;SDS011;52090;51.224;-2.328;2023-01-08T15:28:09;5.93;;;3.80;;
65049;SDS011;52090;51.224;-2.328;2023-01-08T15:31:55;4.22;;;2.72;;
65049;SDS011;52090;51.224;-2.328;2023-01-08T15:35:37;5.18;;;3.20;;
65049;SDS011;52090;51.224;-2.328;2023-01-08T15:39:19;3.47;;;2.40;;
65049;SDS011;52090;51.224;-2.328;2023-01-08T15:43:01;3.65;;;2.38;;
65049;SDS011;52090;51.224;-2.328;2023-01-08T15:46:51;9.35;;;5.40;;
65049;SDS011;52090;51.224;-2.328;2023-01-08T15:50:34;13.13;;;8.23;;
65049;SDS011;52090;51.224;-2.328;2023-01-08T15:54:19;22.40;;;11.35;;
65049;SDS011;52090;51.224;-2.328;2023-01-08T15:58:04;16.90;;;8.15;;
65049;SDS011;52090;51.224;-2.328;2023-01-08T16:01:46;15.13;;;7.07;;
65049;SDS011;52090;51.224;-2.328;2023-01-08T16:05:28;7.32;;;3.80;;
65049;SDS011;52090;51.224;-2.328;2023-01-08T16:09:10;7.47;;;3.00;;
65049;SDS011;52090;51.224;-2.328;2023-01-08T16:12:52;12.70;;;6.88;;
65049;SDS011;52090;51.224;-2.328;2023-01-08T16:16:34;28.90;;;17.33;;
65049;SDS011;52090;51.224;-2.328;2023-01-08T16:20:17;16.02;;;10.05;;
65049;SDS011;52090;51.224;-2.328;2023-01-08T16:23:59;13.32;;;7.18;;
65049;SDS011;52090;51.224;-2.328;2023-01-08T16:27:41;12.80;;;7.03;;
65049;SDS011;52090;51.224;-2.328;2023-01-08T16:31:24;9.90;;;5.53;;
65049;SDS011;52090;51.224;-2.328;2023-01-08T16:35:05;9.10;;;5.25;;
65049;SDS011;52090;51.224;-2.328;2023-01-08T16:38:48;11.18;;;6.60;;
65049;SDS011;52090;51.224;-2.328;2023-01-08T16:42:29;12.70;;;7.40;;
65049;SDS011;52090;51.224;-2.328;2023-01-08T16:46:12;11.00;;;7.68;;
65049;SDS011;52090;51.224;-2.328;2023-01-08T16:49:56;5.78;;;3.47;;
65049;SDS011;52090;51.224;-2.328;2023-01-08T16:53:38;6.68;;;4.20;;
65049;SDS011;52090;51.224;-2.328;2023-01-08T16:57:20;3.28;;;2.67;;
65049;SDS011;52090;51.224;-2.328;2023-01-08T17:01:06;5.15;;;2.63;;
65049;SDS011;52090;51.224;-2.328;2023-01-08T17:04:49;6.05;;;4.50;;
65049;SDS011;52090;51.224;-2.328;2023-01-08T17:08:31;8.05;;;5.03;;
65049;SDS011;52090;51.224;-2.328;2023-01-08T17:12:13;6.45;;;5.10;;
65049;SDS011;52090;51.224;-2.328;2023-01-08T17:16:03;13.93;;;7.55;;
65049;SDS011;52090;51.224;-2.328;2023-01-08T17:19:45;10.27;;;6.85;;
65049;SDS011;52090;51.224;-2.328;2023-01-08T17:23:27;13.93;;;8.45;;
65049;SDS011;52090;51.224;-2.328;2023-01-08T17:27:09;14.65;;;8.35;;
65049;SDS011;52090;51.224;-2.328;2023-01-08T17:30:51;16.20;;;8.48;;
65049;SDS011;52090;51.224;-2.328;2023-01-08T17:34:33;20.20;;;11.98;;
65049;SDS011;52090;51.224;-2.328;2023-01-08T17:38:15;16.10;;;8.65;;
65049;SDS011;52090;51.224;-2.328;2023-01-08T17:41:57;13.05;;;7.70;;
65049;SDS011;52090;51.224;-2.328;2023-01-08T17:46:00;14.68;;;7.53;;
65049;SDS011;52090;51.224;-2.328;2023-01-08T17:49:43;9.80;;;6.65;;
65049;SDS011;52090;51.224;-2.328;2023-01-08T17:53:25;18.77;;;7.35;;
65049;SDS011;52090;51.224;-2.328;2023-01-08T17:57:08;11.85;;;6.97;;
65049;SDS011;52090;51.224;-2.328;2023-01-08T18:00:50;12.40;;;6.80;;
65049;SDS011;52090;51.224;-2.328;2023-01-08T18:04:32;10.73;;;6.28;;
65049;SDS011;52090;51.224;-2.328;2023-01-08T18:08:14;12.65;;;7.55;;
65049;SDS011;52090;51.224;-2.328;2023-01-08T18:11:56;12.77;;;6.45;;
65049;SDS011;52090;51.224;-2.328;2023-01-08T18:15:37;8.63;;;5.32;;
65049;SDS011;52090;51.224;-2.328;2023-01-08T18:19:19;13.23;;;6.90;;
65049;SDS011;52090;51.224;-2.328;2023-01-08T18:23:01;12.00;;;7.75;;
65049;SDS011;52090;51.224;-2.328;2023-01-08T18:26:43;16.50;;;9.98;;
65049;SDS011;52090;51.224;-2.328;2023-01-08T18:34:09;14.85;;;7.45;;
65049;SDS011;52090;51.224;-2.328;2023-01-08T18:37:53;15.77;;;10.00;;
65049;SDS011;52090;51.224;-2.328;2023-01-08T18:41:37;14.60;;;8.07;;
65049;SDS011;52090;51.224;-2.328;2023-01-08T18:45:37;21.88;;;10.60;;
65049;SDS011;52090;51.224;-2.328;2023-01-08T18:49:19;27.50;;;12.52;;
65049;SDS011;52090;51.224;-2.328;2023-01-08T18:53:02;22.40;;;11.15;;
65049;SDS011;52090;51.224;-2.328;2023-01-08T18:56:46;15.88;;;8.80;;
65049;SDS011;52090;51.224;-2.328;2023-01-08T19:00:28;19.05;;;8.07;;
65049;SDS011;52090;51.224;-2.328;2023-01-08T19:04:14;17.23;;;7.72;;
65049;SDS011;52090;51.224;-2.328;2023-01-08T19:07:59;15.75;;;6.60;;
65049;SDS011;52090;51.224;-2.328;2023-01-08T19:11:40;15.00;;;6.38;;
65049;SDS011;52090;51.224;-2.328;2023-01-08T19:15:22;15.73;;;7.55;;
65049;SDS011;52090;51.224;-2.328;2023-01-08T19:19:05;17.20;;;7.03;;
65049;SDS011;52090;51.224;-2.328;2023-01-08T19:22:47;18.63;;;7.55;;
65049;SDS011;52090;51.224;-2.328;2023-01-08T19:26:31;18.67;;;7.78;;
65049;SDS011;52090;51.224;-2.328;2023-01-08T19:30:13;14.57;;;7.72;;
65049;SDS011;52090;51.224;-2.328;2023-01-08T19:33:58;15.60;;;7.15;;
65049;SDS011;52090;51.224;-2.328;2023-01-08T19:37:41;13.85;;;6.40;;
65049;SDS011;52090;51.224;-2.328;2023-01-08T19:41:23;12.52;;;5.35;;
65049;SDS011;52090;51.224;-2.328;2023-01-08T19:45:23;17.08;;;6.20;;
65049;SDS011;52090;51.224;-2.328;2023-01-08T19:49:05;12.65;;;5.88;;
65049;SDS011;52090;51.224;-2.328;2023-01-08T19:52:47;18.42;;;7.20;;
65049;SDS011;52090;51.224;-2.328;2023-01-08T19:56:29;13.20;;;5.57;;
65049;SDS011;52090;51.224;-2.328;2023-01-08T20:00:11;17.33;;;5.63;;
65049;SDS011;52090;51.224;-2.328;2023-01-08T20:03:53;12.68;;;5.53;;
65049;SDS011;52090;51.224;-2.328;2023-01-08T20:07:36;13.10;;;6.35;;
65049;SDS011;52090;51.224;-2.328;2023-01-08T20:11:18;8.45;;;5.15;;
65049;SDS011;52090;51.224;-2.328;2023-01-08T20:15:00;14.85;;;6.15;;
65049;SDS011;52090;51.224;-2.328;2023-01-08T20:18:42;13.20;;;7.13;;
65049;SDS011;52090;51.224;-2.328;2023-01-08T20:22:33;12.18;;;5.80;;
65049;SDS011;52090;51.224;-2.328;2023-01-08T20:26:16;11.60;;;5.18;;
65049;SDS011;52090;51.224;-2.328;2023-01-08T20:29:58;9.18;;;4.22;;
65049;SDS011;52090;51.224;-2.328;2023-01-08T20:33:42;11.68;;;4.60;;
65049;SDS011;52090;51.224;-2.328;2023-01-08T20:37:24;11.35;;;6.97;;
65049;SDS011;52090;51.224;-2.328;2023-01-08T20:41:06;12.77;;;6.13;;
65049;SDS011;52090;51.224;-2.328;2023-01-08T20:44:48;10.75;;;5.15;;
65049;SDS011;52090;51.224;-2.328;2023-01-08T20:48:30;12.30;;;6.22;;
65049;SDS011;52090;51.224;-2.328;2023-01-08T20:52:19;16.40;;;7.38;;
65049;SDS011;52090;51.224;-2.328;2023-01-08T20:56:06;14.77;;;7.50;;
65049;SDS011;52090;51.224;-2.328;2023-01-08T20:59:49;13.48;;;5.70;;
65049;SDS011;52090;51.224;-2.328;2023-01-08T21:03:31;15.93;;;6.20;;
65049;SDS011;52090;51.224;-2.328;2023-01-08T21:07:15;16.73;;;6.22;;
65049;SDS011;52090;51.224;-2.328;2023-01-08T21:10:58;13.32;;;5.82;;
65049;SDS011;52090;51.224;-2.328;2023-01-08T21:18:22;12.07;;;5.55;;
65049;SDS011;52090;51.224;-2.328;2023-01-08T21:22:06;9.63;;;4.95;;
65049;SDS011;52090;51.224;-2.328;2023-01-08T21:25:53;15.80;;;4.80;;
65049;SDS011;52090;51.224;-2.328;2023-01-08T21:29:45;10.95;;;3.40;;
65049;SDS011;52090;51.224;-2.328;2023-01-08T21:33:27;8.00;;;3.40;;
65049;SDS011;52090;51.224;-2.328;2023-01-08T21:37:08;6.38;;;3.90;;
65049;SDS011;52090;51.224;-2.328;2023-01-08T21:41:04;10.18;;;3.45;;
65049;SDS011;52090;51.224;-2.328;2023-01-08T21:44:50;4.97;;;2.60;;
65049;SDS011;52090;51.224;-2.328;2023-01-08T21:48:50;4.40;;;2.85;;
65049;SDS011;52090;51.224;-2.328;2023-01-08T21:52:32;4.70;;;2.30;;
65049;SDS011;52090;51.224;-2.328;2023-01-08T21:56:33;5.50;;;2.17;;
65049;SDS011;52090;51.224;-2.328;2023-01-08T22:00:14;7.88;;;2.30;;
65049;SDS011;52090;51.224;-2.328;2023-01-08T22:03:56;7.75;;;2.35;;
65049;SDS011;52090;51.224;-2.328;2023-01-08T22:07:38;4.97;;;2.45;;
65049;SDS011;52090;51.224;-2.328;2023-01-08T22:11:20;8.52;;;2.25;;
65049;SDS011;52090;51.224;-2.328;2023-01-08T22:15:02;9.73;;;3.10;;
65049;SDS011;52090;51.224;-2.328;2023-01-08T22:18:44;8.60;;;3.72;;
65049;SDS011;52090;51.224;-2.328;2023-01-08T22:22:26;8.45;;;4.85;;
65049;SDS011;52090;51.224;-2.328;2023-01-08T22:26:09;6.75;;;2.80;;
65049;SDS011;52090;51.224;-2.328;2023-01-08T22:29:52;6.22;;;2.42;;
65049;SDS011;52090;51.224;-2.328;2023-01-08T22:33:35;9.30;;;2.88;;
65049;SDS011;52090;51.224;-2.328;2023-01-08T22:37:17;4.93;;;2.17;;
65049;SDS011;52090;51.224;-2.328;2023-01-08T22:41:01;9.00;;;2.85;;
65049;SDS011;52090;51.224;-2.328;2023-01-08T22:44:43;3.50;;;2.20;;
65049;SDS011;52090;51.224;-2.328;2023-01-08T22:48:25;3.78;;;2.08;;
65049;SDS011;52090;51.224;-2.328;2023-01-08T22:52:08;5.70;;;1.90;;
65049;SDS011;52090;51.224;-2.328;2023-01-08T22:55:53;3.70;;;2.35;;
65049;SDS011;52090;51.224;-2.328;2023-01-08T22:59:37;3.05;;;1.67;;
65049;SDS011;52090;51.224;-2.328;2023-01-08T23:03:20;4.10;;;1.80;;
65049;SDS011;52090;51.224;-2.328;2023-01-08T23:07:02;4.85;;;1.85;;
65049;SDS011;52090;51.224;-2.328;2023-01-08T23:10:44;6.40;;;1.80;;
65049;SDS011;52090;51.224;-2.328;2023-01-08T23:14:26;7.28;;;3.13;;
65049;SDS011;52090;51.224;-2.328;2023-01-08T23:18:12;7.05;;;2.17;;
65049;SDS011;52090;51.224;-2.328;2023-01-08T23:21:57;7.55;;;2.80;;
65049;SDS011;52090;51.224;-2.328;2023-01-08T23:25:41;5.15;;;2.60;;
65049;SDS011;52090;51.224;-2.328;2023-01-08T23:29:23;7.25;;;2.67;;
65049;SDS011;52090;51.224;-2.328;2023-01-08T23:33:11;6.32;;;2.55;;
65049;SDS011;52090;51.224;-2.328;2023-01-08T23:36:56;6.15;;;3.05;;
65049;SDS011;52090;51.224;-2.328;2023-01-08T23:40:40;5.57;;;2.90;;
65049;SDS011;52090;51.224;-2.328;2023-01-08T23:44:23;5.53;;;2.83;;